KXA weather

Kasaan Seaplane Base
Kasaan, Alaska, United States

Public forecast

Using degrees Fahrenheit for public forecast. Weather courtesy of forecast.io.

METAR (pilot weather report)

Closest report is Klawock Airport, 23.2 nm (42.9 km) W. Retrieved 2019/07/22 06:53 UTC (47 minutes ago):

PAKW 220653Z AUTO 00000KT 10SM OVC120 14/12 A3002 RMK SLP165 T01440122 TSNO VIA AUTODIAL

TAF (pilot weather forecast)

Closest forecast is Klawock Airport, 23.2 nm (42.9 km) W. Retrieved 2019/07/22 06:28 UTC (1 hour ago):

TAF PAKW 220526Z 2206/2306 20005KT P6SM FEW005 BKN070 FM220900 VRB02KT 3SM BR SCT002 BKN070 FM221600 03004KT P6SM FEW004 BKN080 AMD LTD TO CLD VIS AND WIND